createdAt,value
2023-03-14T00:01:24.396Z,96180.48
2023-03-14T00:05:14.517Z,96186.67
2023-03-14T00:09:03.908Z,96178.13
2023-03-14T00:12:36.775Z,96172.23
2023-03-14T00:16:26.114Z,96166.80
2023-03-14T00:20:16.208Z,96161.21
2023-03-14T00:23:58.011Z,96136.75
2023-03-14T00:27:46.975Z,96123.48
2023-03-14T00:35:21.812Z,96098.86
2023-03-14T00:39:10.952Z,96097.61
2023-03-14T00:42:42.828Z,96086.74
2023-03-14T00:46:32.253Z,96075.30
2023-03-14T00:50:21.161Z,96062.59
2023-03-14T00:54:10.253Z,96044.40
2023-03-14T00:58:01.208Z,96046.20
2023-03-14T01:01:54.587Z,96047.14
2023-03-14T01:05:45.602Z,96033.84
2023-03-14T01:24:52.254Z,95996.29
2023-03-14T01:28:41.455Z,95985.05
2023-03-14T01:32:32.464Z,95984.63
2023-03-14T01:36:25.740Z,95977.79
2023-03-14T01:52:03.623Z,95947.10
2023-03-14T01:55:48.943Z,95934.84
2023-03-14T01:59:38.315Z,95932.57
2023-03-14T02:03:28.429Z,95929.88
2023-03-14T02:07:25.434Z,95915.36
2023-03-14T02:22:51.670Z,95908.42
2023-03-14T02:26:43.291Z,95901.86
2023-03-14T02:30:35.266Z,95888.91
2023-03-14T02:46:18.004Z,95866.52
2023-03-14T02:50:07.014Z,95865.10
2023-03-14T02:54:29.432Z,95861.77
2023-03-14T02:58:18.731Z,95874.56
2023-03-14T03:02:08.016Z,95904.86
2023-03-14T03:05:47.075Z,95975.25
2023-03-14T03:09:16.779Z,96007.20
2023-03-14T03:13:05.644Z,96037.05
2023-03-14T03:16:56.139Z,96050.86
2023-03-14T03:20:24.165Z,96050.48
2023-03-14T03:24:13.939Z,96043.34
2023-03-14T03:28:03.953Z,96054.74
2023-03-14T03:31:52.755Z,96067.45
2023-03-14T03:35:32.998Z,96071.87
2023-03-14T03:39:22.081Z,96077.52
2023-03-14T03:42:51.524Z,96066.58
2023-03-14T03:46:40.881Z,96052.06
2023-03-14T03:50:32.144Z,96050.27
2023-03-14T03:54:21.189Z,96065.75
2023-03-14T03:58:10.045Z,96066.80
2023-03-14T04:01:59.154Z,96054.09
2023-03-14T04:05:38.501Z,96056.35
2023-03-14T04:09:28.798Z,96027.65
2023-03-14T04:25:19.924Z,96091.61
2023-03-14T04:29:08.941Z,96087.30
2023-03-14T04:32:58.073Z,96074.23
2023-03-14T04:36:47.351Z,96081.21
2023-03-14T04:40:36.607Z,96083.12
2023-03-14T04:44:25.804Z,96035.16
2023-03-14T04:48:15.381Z,96020.52
2023-03-14T04:51:58.214Z,96028.05
2023-03-14T04:59:05.987Z,96048.90
2023-03-14T05:23:26.284Z,96015.39
2023-03-14T05:27:08.120Z,96025.67
2023-03-14T05:30:36.677Z,96021.77
2023-03-14T05:33:48.118Z,96030.75
2023-03-14T05:37:25.444Z,96021.67
2023-03-14T05:41:02.716Z,96020.27
2023-03-14T05:44:49.030Z,96009.73
2023-03-14T05:48:27.046Z,96017.87
2023-03-14T06:36:54.477Z,95970.62
2023-03-14T06:40:26.722Z,95972.64
2023-03-14T06:43:58.398Z,95972.27
2023-03-14T06:47:35.198Z,95966.61
2023-03-14T06:51:18.232Z,95976.94
2023-03-14T06:54:59.005Z,95964.33
2023-03-14T06:58:28.064Z,95954.58
2023-03-14T07:02:15.708Z,95957.91
2023-03-14T07:05:29.753Z,95950.48
2023-03-14T07:08:41.182Z,95948.30
2023-03-14T07:11:50.666Z,95946.46
2023-03-14T07:15:22.788Z,95952.35
2023-03-14T07:19:12.074Z,95951.80
2023-03-14T07:22:41.352Z,95964.21
2023-03-14T07:26:01.208Z,95974.30
2023-03-14T07:28:40.041Z,95987.40
2023-03-14T07:32:14.481Z,95990.27
2023-03-14T07:36:04.162Z,95989.89
2023-03-14T07:39:53.689Z,95981.48
2023-03-14T07:42:51.725Z,95990.40
2023-03-14T07:46:19.291Z,95996.91
2023-03-14T07:49:51.399Z,96001.48
2023-03-14T07:53:10.165Z,95986.29
2023-03-14T07:56:59.585Z,95993.29
2023-03-14T08:00:33.556Z,95987.62
2023-03-14T08:04:22.762Z,95994.77
2023-03-14T08:07:13.098Z,95989.75
2023-03-14T08:10:52.747Z,95989.33
2023-03-14T08:14:24.702Z,95987.05
2023-03-14T08:18:14.537Z,95983.59
2023-03-14T08:21:32.132Z,95984.79
2023-03-14T08:24:21.204Z,95997.61
2023-03-14T08:27:41.074Z,95997.63
2023-03-14T08:31:21.579Z,95998.55
2023-03-14T08:34:46.160Z,96004.52
2023-03-14T08:38:19.780Z,96001.58
2023-03-14T08:42:03.527Z,96009.58
2023-03-14T08:45:51.701Z,96017.50
2023-03-14T08:49:14.739Z,96016.10
2023-03-14T08:55:54.697Z,96019.59
2023-03-14T08:58:38.746Z,96026.56
2023-03-14T09:02:19.812Z,96037.09
2023-03-14T09:05:53.554Z,96032.26
2023-03-14T09:09:00.819Z,96026.55
2023-03-14T09:12:28.809Z,96019.58
2023-03-14T09:15:56.531Z,96030.72
2023-03-14T09:19:11.383Z,96027.95
2023-03-14T09:22:28.489Z,96032.11
2023-03-14T09:26:15.584Z,96039.59
2023-03-14T09:40:13.645Z,96054.67
2023-03-14T09:43:45.610Z,96049.50
2023-03-14T09:46:20.260Z,96050.64
2023-03-14T09:49:51.693Z,96058.34
2023-03-14T09:53:19.979Z,96064.79
2023-03-14T09:56:59.251Z,96061.58
2023-03-14T10:00:54.453Z,96061.26
2023-03-14T10:04:46.784Z,96064.38
2023-03-14T10:07:46.853Z,96062.83
2023-03-14T10:38:32.732Z,96110.75
2023-03-14T10:41:59.994Z,96109.61
2023-03-14T10:45:52.134Z,96107.36
2023-03-14T10:49:23.525Z,96105.35
2023-03-14T11:16:14.213Z,96090.48
2023-03-14T11:20:15.813Z,96087.70
2023-03-14T11:23:45.373Z,96085.44
2023-03-14T11:46:16.261Z,96080.61
2023-03-14T11:49:56.798Z,96074.64
2023-03-14T12:15:45.081Z,96068.89
2023-03-14T12:19:16.584Z,96067.60
2023-03-14T12:23:03.716Z,96065.45
2023-03-14T12:27:05.488Z,96067.52
2023-03-14T12:30:41.026Z,96064.58
2023-03-14T12:50:22.750Z,96059.83
2023-03-14T12:54:40.907Z,96070.12
2023-03-14T12:58:20.791Z,96065.30
2023-03-14T13:02:08.212Z,96055.68
2023-03-14T13:05:32.880Z,96061.04
2023-03-14T13:09:19.944Z,96071.90
2023-03-14T13:20:51.289Z,96079.66
2023-03-14T13:24:04.154Z,96079.03
2023-03-14T13:27:31.722Z,96092.36
2023-03-14T13:31:08.995Z,96097.62
2023-03-14T13:34:05.598Z,96102.98
2023-03-14T13:38:04.172Z,96107.15
2023-03-14T13:41:58.485Z,96107.76
2023-03-14T13:45:41.002Z,96111.70
2023-03-14T13:49:25.377Z,96112.75
2023-03-14T14:28:32.301Z,96106.67
2023-03-14T14:31:41.451Z,96107.20
2023-03-14T14:34:53.651Z,96112.22
2023-03-14T14:38:31.624Z,96104.59
2023-03-14T14:41:47.938Z,96107.45
2023-03-14T14:45:19.736Z,96112.07
2023-03-14T14:52:55.373Z,96111.99
2023-03-14T14:56:30.850Z,96111.98
2023-03-14T15:00:26.718Z,96109.95
2023-03-14T15:07:09.532Z,96109.11
2023-03-14T15:10:39.878Z,96108.91
2023-03-14T15:14:14.563Z,96111.20
2023-03-14T15:17:38.659Z,96112.55
2023-03-14T15:20:45.880Z,96114.02
2023-03-14T15:24:18.067Z,96114.27
2023-03-14T15:28:05.698Z,96119.18
2023-03-14T15:31:35.316Z,96122.93
2023-03-14T15:34:47.699Z,96118.77
2023-03-14T15:37:39.256Z,96115.08
2023-03-14T15:40:15.119Z,96116.48
2023-03-14T15:44:04.635Z,96121.72
2023-03-14T15:47:52.702Z,96114.71
2023-03-14T15:51:16.865Z,96110.15
2023-03-14T15:54:38.436Z,96092.50
2023-03-14T15:57:47.318Z,96084.33
2023-03-14T16:01:13.193Z,96068.58
2023-03-14T16:04:47.541Z,96058.65
2023-03-14T16:08:29.543Z,96046.33
2023-03-14T16:11:41.529Z,96027.48
2023-03-14T16:15:24.370Z,96020.94
2023-03-14T16:19:08.426Z,96023.27
2023-03-14T16:22:38.282Z,96023.52
2023-03-14T16:25:53.072Z,96034.27
2023-03-14T16:28:54.896Z,96027.38
2023-03-14T16:32:44.659Z,96028.41
2023-03-14T16:36:36.613Z,96022.23
2023-03-14T16:40:26.391Z,96017.19
2023-03-14T16:44:15.764Z,96024.69
2023-03-14T17:03:07.044Z,96049.55
2023-03-14T17:06:55.040Z,96048.79
2023-03-14T17:10:44.508Z,96054.21
2023-03-14T17:14:33.822Z,96058.02
2023-03-14T17:18:26.321Z,96068.06
2023-03-14T17:22:25.158Z,96062.80
2023-03-14T17:26:17.040Z,96068.83
2023-03-14T17:30:06.302Z,96063.92
2023-03-14T17:33:55.823Z,96072.77
2023-03-14T17:37:45.516Z,96072.06
2023-03-14T17:41:34.055Z,96073.58
2023-03-14T18:08:28.351Z,96117.19
2023-03-14T18:12:07.454Z,96128.27
2023-03-14T18:15:58.188Z,96131.94
2023-03-14T18:19:47.864Z,96135.88
2023-03-14T18:23:37.077Z,96140.52
2023-03-14T18:27:28.188Z,96148.20
2023-03-14T18:31:20.082Z,96149.50
2023-03-14T18:35:10.719Z,96160.22
2023-03-14T18:39:04.194Z,96163.73
2023-03-14T18:42:54.968Z,96168.96
2023-03-14T18:46:44.950Z,96172.02
2023-03-14T18:50:35.254Z,96173.83
2023-03-14T18:54:25.791Z,96176.75
2023-03-14T18:58:16.682Z,96170.19
2023-03-14T19:02:06.278Z,96166.94
2023-03-14T19:05:56.093Z,96170.95
2023-03-14T19:09:45.434Z,96167.77
2023-03-14T19:13:34.942Z,96170.92
2023-03-14T19:17:24.751Z,96175.96
2023-03-14T19:24:58.813Z,96192.83
2023-03-14T19:33:25.241Z,96192.42
2023-03-14T19:41:03.369Z,96194.96
2023-03-14T19:44:43.525Z,96188.10
2023-03-14T19:48:00.120Z,96191.53
2023-03-14T19:51:48.039Z,96193.63
2023-03-14T19:55:36.230Z,96189.87
2023-03-14T20:10:39.072Z,96203.47
2023-03-14T20:14:27.889Z,96209.39
2023-03-14T20:18:19.339Z,96219.00
2023-03-14T20:26:01.648Z,96209.38
2023-03-14T20:29:15.344Z,96212.39
2023-03-14T20:33:04.950Z,96211.38
2023-03-14T20:36:56.916Z,96210.02
2023-03-14T20:40:46.510Z,96207.49
2023-03-14T20:44:17.513Z,96217.59
2023-03-14T21:17:47.752Z,96213.54
2023-03-14T21:21:36.840Z,96224.73
2023-03-14T21:25:26.241Z,96229.09
2023-03-14T21:29:15.648Z,96239.84
2023-03-14T21:33:05.108Z,96247.44
2023-03-14T21:37:40.323Z,96253.81
2023-03-14T21:40:49.171Z,96265.08
2023-03-14T21:43:18.825Z,96269.40
2023-03-14T21:45:49.813Z,96277.26
2023-03-14T21:49:10.435Z,96281.02
2023-03-14T21:52:58.325Z,96289.77
2023-03-14T22:08:32.539Z,96322.89
2023-03-14T22:11:59.938Z,96321.41
2023-03-14T22:15:48.021Z,96325.74
2023-03-14T22:19:28.607Z,96327.50
2023-03-14T22:23:16.491Z,96330.20
2023-03-14T22:27:04.030Z,96336.38
2023-03-14T22:30:53.101Z,96331.73
2023-03-14T22:34:35.306Z,96330.45
2023-03-14T22:38:23.320Z,96337.07
2023-03-14T22:42:10.759Z,96341.09
2023-03-14T22:45:58.751Z,96348.95
2023-03-14T22:49:07.767Z,96350.59
2023-03-14T22:52:55.830Z,96358.21
2023-03-14T22:56:43.341Z,96372.19
2023-03-14T23:00:31.196Z,96377.17
2023-03-14T23:04:19.045Z,96389.05
2023-03-14T23:08:07.122Z,96399.59
2023-03-14T23:12:04.833Z,96458.47
2023-03-14T23:15:52.790Z,96505.27
2023-03-14T23:19:40.432Z,96532.98
2023-03-14T23:23:27.972Z,96550.02
2023-03-14T23:27:16.320Z,96570.56
2023-03-14T23:31:11.009Z,96587.98
2023-03-14T23:35:00.776Z,96599.55
2023-03-14T23:38:49.281Z,96626.42
2023-03-14T23:42:37.532Z,96648.73
2023-03-14T23:46:32.754Z,96674.42
2023-03-14T23:50:20.777Z,96689.60
2023-03-14T23:54:08.469Z,96708.70
